Terminal Aerodrome Forecast
Issued by NWS Boston, MA

Current Version | Previous Version | Text Only | Print | Product List | Glossary On
Versions: 1 2 3 4 5 6 7 8 9 10 11 12 13 14 15 16 17 18 19 20 21 22 23 24 25 26 27 28 29 30 31 32 33 34 35 36 37 38 39 40 41 42 43
000 FTUS41 KBOX 271428 AAA TAFBOS TAF AMD KBOS 271428Z 2714/2818 20014G23KT P6SM SCT150 FM271700 21017G30KT P6SM SCT090 BKN200 FM280200 22013KT P6SM BKN020 FM280600 21011KT 6SM BR BKN010 FM281300 21011KT P6SM BKN140=

USA.gov is the U.S. government's official web portal to all federal, state and local government web resources and services.